West Mersea, United Kingdom
Current Conditions -  °F | °C
As of 1:20 PM on Tuesday 21 Oct 2014 (Local Time) from EGMC Reporting Station
Few Clouds Few Clouds  
Wind Chill: 57°   Ceiling: Unl
Heat Index: 57°   Visibility: 6mi
Dew Point: 39°   Wind: 24mph
Humidity: 51%   Direction: 280°W
Pressure: 29.65"   Gusts: 39mph
Location:  51.78°N, 0.92°E
Report Text: EGMC 211220Z 28021G34KT 9999 FEW035 14/04 Q1004
Loading
Personal Weather Stations






























Interactive Weather Map
Tropical Storm Tracking
New forecast layout! Learn more

10-Day Weather Forecast

Advertisements
Track Severe Weather on mobile